Time;durP1;ratioP1;P1;durP2;ratioP2;P2;SDS_P1;SDS_P2;PMS_P1;PMS_P2;Temp;Humidity;BMP_temperature;BMP_pressure;BME280_temperature;BME280_humidity;BME280_pressure;Samples;Min_cycle;Max_cycle;Signal;HPM_P1;HPM_P2
2023/11/15 00:01:20;;;;;;;1.10;1.10;;;;;;;;;;6213362;28;20324;-72
2023/11/15 00:04:23;;;;;;;1.03;1.00;;;;;;;;;;6212690;28;20334;-72
2023/11/15 00:07:27;;;;;;;1.20;1.20;;;;;;;;;;6213957;28;20301;-72
2023/11/15 00:10:31;;;;;;;1.00;1.00;;;;;;;;;;6213260;28;20380;-71
2023/11/15 00:13:35;;;;;;;1.20;1.20;;;;;;;;;;6208878;28;20312;-71
2023/11/15 00:16:40;;;;;;;1.57;1.47;;;;;;;;;;6209091;28;20609;-72
2023/11/15 00:19:45;;;;;;;1.83;1.27;;;;;;;;;;6184613;28;20558;-71
2023/11/15 00:22:49;;;;;;;1.10;1.10;;;;;;;;;;6193924;28;20299;-71
2023/11/15 00:25:53;;;;;;;1.30;1.30;;;;;;;;;;6195341;28;20316;-72
2023/11/15 00:28:57;;;;;;;1.30;1.30;;;;;;;;;;6198483;28;20305;-71
2023/11/15 00:32:02;;;;;;;1.20;1.20;;;;;;;;;;6208918;28;20312;-72
2023/11/15 00:35:08;;;;;;;1.47;1.37;;;;;;;;;;6217866;28;20295;-71
2023/11/15 00:38:12;;;;;;;1.63;1.63;;;;;;;;;;6207325;28;20313;-72
2023/11/15 00:41:16;;;;;;;1.80;1.50;;;;;;;;;;6199904;28;20305;-71
2023/11/15 00:44:19;;;;;;;1.60;1.60;;;;;;;;;;6206154;28;20312;-71
2023/11/15 00:47:26;;;;;;;1.70;1.70;;;;;;;;;;6177751;28;20272;-71
2023/11/15 00:50:30;;;;;;;1.70;1.67;;;;;;;;;;6207025;28;20476;-70
2023/11/15 00:53:35;;;;;;;1.67;1.67;;;;;;;;;;6206524;28;20548;-72
2023/11/15 00:56:38;;;;;;;1.40;1.40;;;;;;;;;;6206883;28;20319;-72
2023/11/15 00:59:47;;;;;;;1.50;1.50;;;;;;;;;;6206259;28;20490;-72
2023/11/15 01:02:55;;;;;;;1.37;1.37;;;;;;;;;;6205803;28;20315;-73
2023/11/15 01:06:01;;;;;;;1.23;1.23;;;;;;;;;;6205818;28;20292;-71
2023/11/15 01:09:08;;;;;;;1.40;1.40;;;;;;;;;;6207781;28;20308;-73
2023/11/15 01:12:12;;;;;;;1.77;1.60;;;;;;;;;;6197105;28;20495;-72
2023/11/15 01:15:16;;;;;;;1.63;1.60;;;;;;;;;;6200384;28;20313;-72
2023/11/15 01:18:22;;;;;;;1.63;1.63;;;;;;;;;;6189497;28;20308;-72
2023/11/15 01:21:27;;;;;;;1.60;1.60;;;;;;;;;;6222341;28;20309;-73
2023/11/15 01:24:31;;;;;;;1.80;1.70;;;;;;;;;;6212029;28;20461;-72
2023/11/15 01:27:36;;;;;;;1.70;1.70;;;;;;;;;;6213505;28;20299;-72
2023/11/15 01:30:40;;;;;;;1.80;1.70;;;;;;;;;;6231624;28;20295;-71
2023/11/15 01:33:45;;;;;;;1.67;1.57;;;;;;;;;;6231126;28;20327;-71
2023/11/15 01:36:48;;;;;;;1.80;1.70;;;;;;;;;;6207171;28;20294;-72
2023/11/15 01:39:52;;;;;;;1.67;1.67;;;;;;;;;;6180437;28;20300;-71
2023/11/15 01:42:56;;;;;;;1.87;1.63;;;;;;;;;;6182413;28;20299;-72
2023/11/15 01:45:59;;;;;;;1.60;1.60;;;;;;;;;;6182603;28;20308;-70
2023/11/15 01:49:05;;;;;;;2.23;2.03;;;;;;;;;;6180048;28;20616;-73
2023/11/15 01:52:10;;;;;;;1.73;1.73;;;;;;;;;;6182902;28;20609;-72
2023/11/15 01:55:15;;;;;;;1.90;1.90;;;;;;;;;;6181564;28;20365;-72
2023/11/15 01:58:19;;;;;;;1.73;1.63;;;;;;;;;;6172387;28;20296;-71
2023/11/15 02:01:23;;;;;;;1.77;1.67;;;;;;;;;;6180235;28;20301;-71
2023/11/15 02:04:28;;;;;;;1.73;1.73;;;;;;;;;;6181744;28;20303;-71
2023/11/15 02:07:32;;;;;;;1.70;1.70;;;;;;;;;;6182159;28;20380;-73
2023/11/15 02:10:37;;;;;;;1.90;1.80;;;;;;;;;;6169229;28;20308;-72
2023/11/15 02:13:41;;;;;;;1.87;1.87;;;;;;;;;;6182357;28;20300;-72
2023/11/15 02:16:45;;;;;;;1.90;1.80;;;;;;;;;;6181829;28;20324;-71
2023/11/15 02:19:50;;;;;;;1.97;1.87;;;;;;;;;;6187683;28;20335;-71
2023/11/15 02:22:54;;;;;;;2.00;1.90;;;;;;;;;;6204382;28;20286;-71
2023/11/15 02:25:59;;;;;;;1.73;1.63;;;;;;;;;;6205480;28;20380;-71
2023/11/15 02:29:03;;;;;;;2.10;2.00;;;;;;;;;;6206046;28;20620;-72
2023/11/15 02:32:09;;;;;;;1.77;1.67;;;;;;;;;;6203319;28;20359;-74
2023/11/15 02:35:13;;;;;;;1.70;1.70;;;;;;;;;;6201186;28;20312;-71
2023/11/15 02:38:16;;;;;;;1.97;1.97;;;;;;;;;;6208721;28;20303;-73
2023/11/15 02:41:22;;;;;;;1.90;1.80;;;;;;;;;;6185160;28;20320;-71
2023/11/15 02:44:26;;;;;;;2.00;2.00;;;;;;;;;;6176309;28;20560;-72
2023/11/15 02:47:30;;;;;;;1.93;1.73;;;;;;;;;;6181209;28;20346;-70
2023/11/15 02:50:34;;;;;;;1.90;1.80;;;;;;;;;;6187716;28;20300;-71
2023/11/15 02:53:37;;;;;;;1.83;1.80;;;;;;;;;;6176330;28;20300;-72
2023/11/15 02:56:43;;;;;;;1.77;1.77;;;;;;;;;;6180370;28;20296;-72
2023/11/15 02:59:46;;;;;;;1.87;1.87;;;;;;;;;;6203074;28;20300;-72
2023/11/15 03:02:50;;;;;;;1.70;1.70;;;;;;;;;;6177872;28;20364;-73
2023/11/15 03:05:55;;;;;;;1.60;1.60;;;;;;;;;;6187687;28;20229;-71
2023/11/15 03:08:58;;;;;;;1.93;1.63;;;;;;;;;;6158679;28;20309;-71
2023/11/15 03:12:04;;;;;;;1.80;1.80;;;;;;;;;;6180445;28;20303;-71
2023/11/15 03:15:09;;;;;;;2.50;2.50;;;;;;;;;;6179202;28;20488;-71
2023/11/15 03:18:12;;;;;;;2.30;2.20;;;;;;;;;;6180705;28;20301;-73
2023/11/15 03:21:17;;;;;;;2.17;2.00;;;;;;;;;;6180961;28;20327;-70
2023/11/15 03:24:21;;;;;;;2.33;1.70;;;;;;;;;;6179728;28;20296;-72
2023/11/15 03:27:26;;;;;;;2.00;1.90;;;;;;;;;;6189160;28;20232;-71
2023/11/15 03:30:31;;;;;;;2.43;2.33;;;;;;;;;;6181247;28;20309;-72
2023/11/15 03:33:34;;;;;;;2.10;2.10;;;;;;;;;;6179356;28;20486;-73
2023/11/15 03:36:40;;;;;;;2.00;2.00;;;;;;;;;;6177941;28;20321;-71
2023/11/15 03:39:45;;;;;;;2.57;2.47;;;;;;;;;;6171468;28;20296;-71
2023/11/15 03:42:51;;;;;;;2.43;2.33;;;;;;;;;;6179797;28;20313;-73
2023/11/15 03:45:55;;;;;;;2.33;2.10;;;;;;;;;;6202779;28;20409;-73
2023/11/15 03:48:59;;;;;;;2.27;2.17;;;;;;;;;;6197682;28;20494;-70
2023/11/15 03:52:02;;;;;;;2.00;2.00;;;;;;;;;;6199017;28;20291;-71
2023/11/15 03:55:07;;;;;;;2.20;2.20;;;;;;;;;;6206860;28;20304;-72
2023/11/15 03:58:13;;;;;;;2.30;2.20;;;;;;;;;;6194885;28;20514;-73
2023/11/15 04:01:17;;;;;;;2.23;2.10;;;;;;;;;;6198274;28;20620;-71
2023/11/15 04:04:22;;;;;;;2.67;2.67;;;;;;;;;;6207417;28;20292;-71
2023/11/15 04:07:26;;;;;;;2.17;2.13;;;;;;;;;;6212189;28;20301;-73
2023/11/15 04:10:30;;;;;;;2.20;2.20;;;;;;;;;;6212914;28;20376;-70
2023/11/15 04:13:36;;;;;;;2.30;2.30;;;;;;;;;;6195208;28;20296;-72
2023/11/15 04:16:40;;;;;;;2.57;2.47;;;;;;;;;;6216138;28;20518;-71
2023/11/15 04:19:43;;;;;;;2.80;2.70;;;;;;;;;;6205395;28;20304;-71
2023/11/15 04:22:49;;;;;;;2.57;2.47;;;;;;;;;;6189101;28;20616;-72
2023/11/15 04:25:52;;;;;;;2.50;2.40;;;;;;;;;;6208801;28;20386;-70
2023/11/15 04:28:57;;;;;;;2.77;2.67;;;;;;;;;;6208818;28;20291;-73
2023/11/15 04:32:01;;;;;;;2.60;2.57;;;;;;;;;;6199745;28;20328;-71
2023/11/15 04:35:06;;;;;;;2.13;2.13;;;;;;;;;;6207956;28;20304;-71
2023/11/15 04:38:10;;;;;;;2.50;2.50;;;;;;;;;;6213072;28;20342;-72
2023/11/15 04:41:14;;;;;;;2.40;2.30;;;;;;;;;;6209212;28;20324;-72
2023/11/15 04:44:21;;;;;;;2.57;2.50;;;;;;;;;;6208716;28;20340;-73
2023/11/15 04:47:24;;;;;;;2.60;2.50;;;;;;;;;;6209233;28;20303;-72
2023/11/15 04:50:29;;;;;;;2.50;2.30;;;;;;;;;;6181700;28;20244;-71
2023/11/15 04:53:33;;;;;;;2.27;2.13;;;;;;;;;;6184969;28;20300;-72
2023/11/15 04:56:37;;;;;;;2.23;2.03;;;;;;;;;;6204186;28;20323;-71
2023/11/15 04:59:43;;;;;;;2.30;2.30;;;;;;;;;;6206803;28;20303;-72
2023/11/15 05:02:46;;;;;;;2.23;2.13;;;;;;;;;;6208916;28;20292;-70
2023/11/15 05:05:50;;;;;;;2.13;2.13;;;;;;;;;;6207146;28;20315;-71
2023/11/15 05:08:54;;;;;;;2.00;1.87;;;;;;;;;;6208441;28;20299;-71
2023/11/15 05:11:58;;;;;;;2.40;2.30;;;;;;;;;;6209437;28;20495;-72
2023/11/15 05:15:04;;;;;;;2.47;2.47;;;;;;;;;;6231984;28;20306;-71
2023/11/15 05:18:08;;;;;;;2.27;2.27;;;;;;;;;;6232132;28;20295;-71
2023/11/15 05:21:12;;;;;;;2.63;2.27;;;;;;;;;;6232270;28;20298;-72
2023/11/15 05:24:16;;;;;;;3.17;2.00;;;;;;;;;;6219190;28;20295;-72
2023/11/15 05:27:21;;;;;;;2.13;2.13;;;;;;;;;;6208692;28;20451;-72
2023/11/15 05:30:27;;;;;;;2.43;2.33;;;;;;;;;;6231379;28;20295;-72
2023/11/15 05:33:31;;;;;;;2.50;2.40;;;;;;;;;;6231314;28;20304;-71
2023/11/15 05:36:35;;;;;;;2.53;2.30;;;;;;;;;;6204748;28;20586;-73
2023/11/15 05:39:40;;;;;;;4.20;1.90;;;;;;;;;;6182790;28;20308;-72
2023/11/15 05:42:44;;;;;;;2.10;2.00;;;;;;;;;;6180972;28;20301;-72
2023/11/15 05:45:49;;;;;;;2.10;2.10;;;;;;;;;;6182579;28;20384;-71
2023/11/15 05:48:54;;;;;;;2.30;2.30;;;;;;;;;;6181119;28;20245;-73
2023/11/15 05:51:58;;;;;;;2.43;2.43;;;;;;;;;;6183047;28;20303;-71
2023/11/15 05:55:02;;;;;;;2.60;2.50;;;;;;;;;;6199039;28;20300;-70
2023/11/15 05:58:06;;;;;;;2.20;2.10;;;;;;;;;;6204484;28;20300;-71
2023/11/15 06:01:12;;;;;;;2.33;2.33;;;;;;;;;;6206848;28;20304;-70
2023/11/15 06:04:16;;;;;;;2.90;2.70;;;;;;;;;;6205882;28;20626;-71
2023/11/15 06:07:20;;;;;;;2.80;2.70;;;;;;;;;;6207128;28;20330;-70
2023/11/15 06:10:27;;;;;;;2.27;2.17;;;;;;;;;;6200680;28;20478;-72
2023/11/15 06:13:31;;;;;;;2.50;2.30;;;;;;;;;;6181531;28;20284;-71
2023/11/15 06:16:38;;;;;;;2.27;2.17;;;;;;;;;;6182617;28;20353;-71
2023/11/15 06:19:43;;;;;;;2.60;2.60;;;;;;;;;;6182082;28;20293;-71
2023/11/15 06:22:57;;;;;;;3.27;2.37;;;;;;;;;;6182179;28;20292;-73
2023/11/15 06:26:01;;;;;;;2.60;2.60;;;;;;;;;;6182848;28;20305;-73
2023/11/15 06:29:07;;;;;;;2.70;2.60;;;;;;;;;;6182377;28;20336;-71
2023/11/15 06:32:12;;;;;;;2.87;2.67;;;;;;;;;;6182607;28;20602;-72
2023/11/15 06:35:19;;;;;;;2.57;2.37;;;;;;;;;;6180816;28;20336;-73
2023/11/15 06:38:23;;;;;;;2.80;2.60;;;;;;;;;;6181556;28;20309;-72
2023/11/15 06:41:27;;;;;;;2.70;2.57;;;;;;;;;;6182319;28;20312;-73
2023/11/15 06:44:31;;;;;;;3.20;2.90;;;;;;;;;;6191338;28;20313;-72
2023/11/15 06:47:36;;;;;;;3.03;2.80;;;;;;;;;;6206291;28;20304;-72
2023/11/15 06:50:41;;;;;;;2.60;2.60;;;;;;;;;;6205448;28;20485;-72
2023/11/15 06:53:45;;;;;;;2.97;2.77;;;;;;;;;;6205137;28;20315;-70
2023/11/15 06:56:49;;;;;;;3.17;2.90;;;;;;;;;;6194780;28;20301;-71
2023/11/15 06:59:54;;;;;;;2.53;2.53;;;;;;;;;;6179506;28;20401;-71
2023/11/15 07:02:59;;;;;;;3.00;2.90;;;;;;;;;;6180786;28;20304;-70
2023/11/15 07:06:05;;;;;;;2.90;2.67;;;;;;;;;;6182021;28;20324;-72
2023/11/15 07:09:09;;;;;;;4.40;2.83;;;;;;;;;;6186391;28;20315;-71
2023/11/15 07:12:14;;;;;;;2.90;2.80;;;;;;;;;;6209107;28;20308;-71
2023/11/15 07:15:18;;;;;;;2.83;2.73;;;;;;;;;;6204072;28;20323;-72
2023/11/15 07:18:24;;;;;;;3.03;2.87;;;;;;;;;;6204853;28;20488;-71
2023/11/15 07:21:31;;;;;;;4.13;2.73;;;;;;;;;;6206832;28;20319;-71
2023/11/15 07:24:39;;;;;;;3.27;2.90;;;;;;;;;;6209553;28;20307;-72
2023/11/15 07:27:45;;;;;;;3.60;3.30;;;;;;;;;;6187783;28;20260;-71
2023/11/15 07:30:50;;;;;;;3.17;2.97;;;;;;;;;;6209870;28;20291;-71
2023/11/15 07:33:56;;;;;;;3.50;3.30;;;;;;;;;;6209663;28;20303;-71
2023/11/15 07:37:01;;;;;;;3.07;2.97;;;;;;;;;;6209772;28;20297;-71
2023/11/15 07:40:12;;;;;;;3.47;3.20;;;;;;;;;;6209803;28;20327;-73
2023/11/15 07:43:17;;;;;;;3.10;3.00;;;;;;;;;;6209120;28;20476;-71
2023/11/15 07:46:22;;;;;;;3.70;3.40;;;;;;;;;;6209789;28;20465;-72
2023/11/15 07:49:28;;;;;;;7.13;3.33;;;;;;;;;;6208926;28;20310;-71
2023/11/15 07:52:33;;;;;;;3.07;2.87;;;;;;;;;;6209447;28;20332;-71
2023/11/15 07:55:37;;;;;;;3.40;3.20;;;;;;;;;;6208752;28;20312;-71
2023/11/15 07:58:41;;;;;;;2.90;2.80;;;;;;;;;;6207296;28;20304;-71
2023/11/15 08:01:44;;;;;;;2.80;2.70;;;;;;;;;;6209241;28;20299;-72
2023/11/15 08:04:52;;;;;;;3.57;2.60;;;;;;;;;;6208412;28;20297;-70
2023/11/15 08:07:57;;;;;;;2.33;2.23;;;;;;;;;;6208646;28;20307;-72
2023/11/15 08:11:03;;;;;;;2.30;2.20;;;;;;;;;;6219215;28;20301;-72
2023/11/15 08:14:07;;;;;;;5.33;2.40;;;;;;;;;;6232581;28;20288;-71
2023/11/15 08:17:12;;;;;;;2.70;2.60;;;;;;;;;;6233127;28;20315;-74
2023/11/15 08:20:18;;;;;;;2.63;2.63;;;;;;;;;;6232882;28;20308;-71
2023/11/15 08:23:23;;;;;;;2.30;2.30;;;;;;;;;;6232632;28;20299;-70
2023/11/15 08:26:27;;;;;;;2.57;2.40;;;;;;;;;;6232641;28;20291;-71
2023/11/15 08:29:31;;;;;;;2.30;2.30;;;;;;;;;;6232655;28;20243;-70
2023/11/15 08:32:35;;;;;;;2.70;2.60;;;;;;;;;;6232566;28;20303;-71
2023/11/15 08:35:43;;;;;;;2.67;2.67;;;;;;;;;;6231905;28;20316;-70
2023/11/15 08:38:46;;;;;;;2.43;2.30;;;;;;;;;;6232204;28;20284;-73
2023/11/15 08:41:50;;;;;;;2.53;2.53;;;;;;;;;;6232311;28;20560;-71
2023/11/15 08:44:54;;;;;;;2.93;2.67;;;;;;;;;;6232170;28;20388;-71
2023/11/15 08:47:58;;;;;;;2.50;2.40;;;;;;;;;;6231855;28;20291;-70
2023/11/15 08:51:04;;;;;;;2.90;2.80;;;;;;;;;;6232257;28;20303;-72
2023/11/15 08:54:09;;;;;;;2.63;2.53;;;;;;;;;;6232412;28;20299;-72
2023/11/15 08:57:15;;;;;;;4.63;2.70;;;;;;;;;;6217931;28;20304;-71
2023/11/15 09:00:19;;;;;;;3.10;2.90;;;;;;;;;;6205553;28;20298;-71
2023/11/15 09:03:23;;;;;;;2.87;2.70;;;;;;;;;;6206853;28;20301;-73
2023/11/15 09:06:29;;;;;;;2.70;2.50;;;;;;;;;;6208836;28;20280;-70
2023/11/15 09:09:39;;;;;;;2.73;2.50;;;;;;;;;;6209041;28;20423;-71
2023/11/15 09:12:44;;;;;;;2.90;2.57;;;;;;;;;;6233256;28;20600;-71
2023/11/15 09:15:50;;;;;;;2.60;2.60;;;;;;;;;;6233026;28;20300;-72
2023/11/15 09:18:54;;;;;;;2.93;2.73;;;;;;;;;;6215014;28;20328;-72
2023/11/15 09:22:02;;;;;;;3.37;3.07;;;;;;;;;;6233472;28;20308;-72
2023/11/15 09:25:07;;;;;;;5.70;2.77;;;;;;;;;;6232756;28;20292;-72
2023/11/15 09:28:14;;;;;;;2.47;2.30;;;;;;;;;;6232964;28;20235;-70
2023/11/15 09:31:18;;;;;;;2.40;2.30;;;;;;;;;;6233922;28;20297;-71
2023/11/15 09:34:22;;;;;;;2.80;2.60;;;;;;;;;;6233754;28;20479;-72
2023/11/15 09:37:27;;;;;;;3.40;2.80;;;;;;;;;;6233353;28;20295;-70
2023/11/15 09:40:32;;;;;;;2.60;2.50;;;;;;;;;;6233183;28;20303;-73
2023/11/15 09:43:36;;;;;;;2.50;2.40;;;;;;;;;;6233574;28;20471;-73
2023/11/15 09:46:40;;;;;;;6.30;2.20;;;;;;;;;;6233293;28;20312;-74
2023/11/15 09:49:44;;;;;;;2.53;2.43;;;;;;;;;;6232254;28;20311;-71
2023/11/15 09:52:50;;;;;;;2.70;2.60;;;;;;;;;;6232950;28;20303;-71
2023/11/15 09:55:54;;;;;;;2.73;2.53;;;;;;;;;;6228146;28;20317;-72
2023/11/15 09:58:58;;;;;;;2.73;2.53;;;;;;;;;;6206282;28;20299;-71
2023/11/15 10:02:02;;;;;;;1.80;1.80;;;;;;;;;;6190844;28;20307;-72
2023/11/15 10:05:14;;;;;;;2.23;2.00;;;;;;;;;;6208099;28;20288;-72
2023/11/15 10:08:20;;;;;;;2.27;2.17;;;;;;;;;;6208178;28;20288;-72
2023/11/15 10:11:26;;;;;;;2.33;2.23;;;;;;;;;;6221405;28;20291;-71
2023/11/15 10:14:32;;;;;;;2.23;2.13;;;;;;;;;;6232079;28;20318;-71
2023/11/15 10:17:40;;;;;;;2.40;2.20;;;;;;;;;;6232053;28;20644;-72
2023/11/15 10:20:44;;;;;;;1.73;1.73;;;;;;;;;;6230156;28;20589;-70
2023/11/15 10:23:51;;;;;;;2.13;2.00;;;;;;;;;;6230341;28;20612;-72
2023/11/15 10:26:56;;;;;;;4.17;2.53;;;;;;;;;;6230823;28;20324;-71
2023/11/15 10:30:00;;;;;;;2.87;2.50;;;;;;;;;;6230194;28;20311;-71
2023/11/15 10:33:07;;;;;;;2.27;2.17;;;;;;;;;;6230617;28;20304;-73
2023/11/15 10:36:16;;;;;;;2.77;2.63;;;;;;;;;;6230089;28;20308;-70
2023/11/15 10:39:21;;;;;;;2.40;2.20;;;;;;;;;;6205441;28;20309;-72
2023/11/15 10:42:28;;;;;;;4.40;2.40;;;;;;;;;;6214112;28;20300;-72
2023/11/15 10:45:32;;;;;;;2.10;2.10;;;;;;;;;;6224180;28;20297;-71
2023/11/15 10:48:37;;;;;;;1.93;1.80;;;;;;;;;;6230031;28;20308;-73
2023/11/15 10:51:42;;;;;;;1.93;1.70;;;;;;;;;;6229806;28;20612;-73
2023/11/15 10:54:49;;;;;;;1.90;1.90;;;;;;;;;;6205424;28;20289;-71
2023/11/15 10:58:00;;;;;;;1.90;1.90;;;;;;;;;;6183453;28;20514;-72
2023/11/15 11:01:06;;;;;;;1.90;1.90;;;;;;;;;;6181860;28;20583;-72
2023/11/15 11:04:15;;;;;;;1.60;1.60;;;;;;;;;;6180769;28;20310;-72
2023/11/15 11:07:26;;;;;;;1.60;1.60;;;;;;;;;;6181956;28;20321;-71
2023/11/15 11:10:36;;;;;;;2.50;1.70;;;;;;;;;;6186809;28;20320;-71
2023/11/15 11:13:40;;;;;;;1.73;1.73;;;;;;;;;;6205329;28;20564;-71
2023/11/15 11:16:44;;;;;;;1.53;1.43;;;;;;;;;;6205116;28;20301;-72
2023/11/15 11:19:50;;;;;;;1.73;1.63;;;;;;;;;;6204979;28;20300;-72
2023/11/15 11:23:16;;;;;;;2.10;2.10;;;;;;;;;;6205327;28;20621;-71
2023/11/15 11:26:41;;;;;;;1.73;1.73;;;;;;;;;;6205279;28;20304;-72
2023/11/15 11:30:17;;;;;;;1.93;1.50;;;;;;;;;;6205088;28;20302;-72
2023/11/15 11:33:24;;;;;;;1.50;1.40;;;;;;;;;;6204863;28;20310;-72
2023/11/15 11:36:49;;;;;;;1.67;1.67;;;;;;;;;;6205039;28;20301;-72
2023/11/15 11:39:55;;;;;;;1.80;1.63;;;;;;;;;;6204918;28;20300;-73
2023/11/15 11:43:21;;;;;;;1.80;1.80;;;;;;;;;;6204773;28;20596;-72
2023/11/15 11:46:27;;;;;;;1.97;1.87;;;;;;;;;;6204978;28;20292;-72
2023/11/15 11:49:45;;;;;;;1.80;1.80;;;;;;;;;;6205102;28;20316;-73
2023/11/15 11:52:53;;;;;;;1.83;1.73;;;;;;;;;;6204945;28;20304;-72
2023/11/15 11:55:57;;;;;;;2.93;1.90;;;;;;;;;;6200469;28;20477;-72
2023/11/15 11:59:11;;;;;;;1.80;1.80;;;;;;;;;;6178733;28;20642;-71
2023/11/15 12:02:17;;;;;;;2.10;2.10;;;;;;;;;;6180708;28;20305;-71
2023/11/15 12:05:22;;;;;;;2.03;1.80;;;;;;;;;;6180478;28;20308;-71
2023/11/15 12:08:27;;;;;;;1.93;1.93;;;;;;;;;;6181588;28;20288;-72
2023/11/15 12:11:31;;;;;;;1.80;1.80;;;;;;;;;;6199040;28;20255;-71
2023/11/15 12:14:49;;;;;;;2.00;1.90;;;;;;;;;;6209442;28;20304;-74
2023/11/15 12:17:55;;;;;;;2.00;2.00;;;;;;;;;;6208711;28;20501;-73
2023/11/15 12:20:59;;;;;;;1.97;1.97;;;;;;;;;;6209165;28;20301;-74
2023/11/15 12:24:09;;;;;;;2.40;2.40;;;;;;;;;;6208306;28;20297;-73
2023/11/15 12:27:14;;;;;;;2.23;2.10;;;;;;;;;;6208018;28;20304;-73
2023/11/15 12:30:19;;;;;;;2.17;2.00;;;;;;;;;;6208305;28;20308;-73
2023/11/15 12:33:24;;;;;;;2.37;2.17;;;;;;;;;;6208270;28;20308;-71
2023/11/15 12:36:28;;;;;;;2.43;2.33;;;;;;;;;;6208669;28;20289;-71
2023/11/15 12:39:38;;;;;;;2.57;2.27;;;;;;;;;;6208224;28;20292;-71
2023/11/15 12:42:43;;;;;;;3.03;2.30;;;;;;;;;;6209117;28;20345;-72
2023/11/15 12:45:48;;;;;;;2.40;2.20;;;;;;;;;;6207972;28;20301;-73
2023/11/15 12:48:52;;;;;;;2.60;2.40;;;;;;;;;;6207986;28;20293;-72
2023/11/15 12:51:55;;;;;;;1.90;1.90;;;;;;;;;;6208565;28;20304;-72
2023/11/15 12:54:59;;;;;;;3.67;2.40;;;;;;;;;;6208058;28;20304;-73
2023/11/15 12:58:03;;;;;;;2.50;2.33;;;;;;;;;;6185238;28;20606;-71
2023/11/15 13:01:11;;;;;;;2.47;2.30;;;;;;;;;;6186160;28;20313;-71
2023/11/15 13:04:15;;;;;;;2.00;2.00;;;;;;;;;;6207763;28;20303;-70
2023/11/15 13:07:19;;;;;;;2.77;2.57;;;;;;;;;;6207685;28;20296;-72
2023/11/15 13:10:23;;;;;;;4.33;2.20;;;;;;;;;;6202442;28;20302;-71
2023/11/15 13:13:28;;;;;;;2.30;2.20;;;;;;;;;;6182946;28;20309;-71
2023/11/15 13:16:33;;;;;;;2.40;2.30;;;;;;;;;;6183091;28;20293;-71
2023/11/15 13:19:37;;;;;;;4.13;2.10;;;;;;;;;;6180250;28;20396;-72
2023/11/15 13:22:40;;;;;;;1.93;1.93;;;;;;;;;;6183758;28;20297;-74
2023/11/15 13:25:44;;;;;;;3.10;2.60;;;;;;;;;;6187713;28;20297;-72
2023/11/15 13:28:49;;;;;;;5.33;2.43;;;;;;;;;;6183234;28;20598;-71
2023/11/15 13:31:55;;;;;;;2.20;2.20;;;;;;;;;;6171202;28;20301;-72
2023/11/15 13:35:02;;;;;;;2.73;2.53;;;;;;;;;;6182851;28;20472;-71
2023/11/15 13:38:06;;;;;;;2.47;2.37;;;;;;;;;;6182602;28;20469;-71
2023/11/15 13:41:10;;;;;;;2.83;2.63;;;;;;;;;;6183108;28;20296;-71
2023/11/15 13:44:15;;;;;;;2.97;2.77;;;;;;;;;;6182667;28;20301;-73
2023/11/15 13:47:21;;;;;;;2.70;2.50;;;;;;;;;;6182896;28;20301;-72
2023/11/15 13:50:24;;;;;;;2.50;2.40;;;;;;;;;;6182583;28;20298;-71
2023/11/15 13:53:29;;;;;;;3.00;2.80;;;;;;;;;;6182193;28;20313;-72
2023/11/15 13:56:33;;;;;;;3.33;2.53;;;;;;;;;;6182596;28;20316;-72
2023/11/15 13:59:36;;;;;;;2.87;2.70;;;;;;;;;;6180713;28;20312;-71
2023/11/15 14:02:42;;;;;;;4.93;2.33;;;;;;;;;;6181875;28;20533;-71
2023/11/15 14:05:47;;;;;;;4.90;2.83;;;;;;;;;;6182410;28;20605;-71
2023/11/15 14:08:50;;;;;;;3.33;3.10;;;;;;;;;;6182485;28;20495;-72
2023/11/15 14:12:04;;;;;;;3.70;2.83;;;;;;;;;;6200188;28;20580;-72
2023/11/15 14:15:10;;;;;;;3.07;2.93;;;;;;;;;;6206201;28;20307;-72
2023/11/15 14:18:16;;;;;;;2.90;2.70;;;;;;;;;;6204748;28;20239;-72
2023/11/15 14:21:20;;;;;;;3.10;2.90;;;;;;;;;;6205925;28;20320;-72
2023/11/15 14:24:24;;;;;;;2.80;2.70;;;;;;;;;;6205854;28;20519;-74
2023/11/15 14:27:29;;;;;;;4.70;2.70;;;;;;;;;;6206072;28;20344;-75
2023/11/15 14:30:33;;;;;;;4.67;2.83;;;;;;;;;;6205457;28;20343;-72
2023/11/15 14:33:39;;;;;;;3.30;3.00;;;;;;;;;;6205239;28;20479;-75
2023/11/15 14:36:45;;;;;;;3.20;2.90;;;;;;;;;;6206203;28;20371;-74
2023/11/15 14:39:48;;;;;;;2.60;2.50;;;;;;;;;;6205674;28;20292;-71
2023/11/15 14:42:55;;;;;;;2.97;2.77;;;;;;;;;;6206491;28;20316;-75
2023/11/15 14:45:59;;;;;;;2.90;2.67;;;;;;;;;;6204454;28;20308;-73
2023/11/15 14:49:04;;;;;;;2.43;2.30;;;;;;;;;;6201762;28;20308;-73
2023/11/15 14:52:10;;;;;;;2.37;2.33;;;;;;;;;;6204313;28;20230;-72
2023/11/15 14:55:14;;;;;;;2.50;2.40;;;;;;;;;;6181187;28;20297;-70
2023/11/15 14:58:18;;;;;;;2.40;2.40;;;;;;;;;;6175363;28;20413;-71
2023/11/15 15:01:23;;;;;;;2.60;2.40;;;;;;;;;;6181978;28;20310;-70
2023/11/15 15:04:33;;;;;;;2.30;2.20;;;;;;;;;;6181246;28;20313;-72
2023/11/15 15:07:37;;;;;;;2.60;2.40;;;;;;;;;;6182482;28;20655;-73
2023/11/15 15:10:41;;;;;;;3.60;2.70;;;;;;;;;;6189338;28;20293;-72
2023/11/15 15:13:45;;;;;;;2.43;2.33;;;;;;;;;;6205330;28;20312;-71
2023/11/15 15:16:49;;;;;;;2.63;2.50;;;;;;;;;;6206324;28;20299;-71
2023/11/15 15:19:55;;;;;;;2.50;2.40;;;;;;;;;;6218926;28;20291;-72
2023/11/15 15:22:58;;;;;;;2.80;2.53;;;;;;;;;;6218643;28;20299;-71
2023/11/15 15:26:05;;;;;;;2.60;2.50;;;;;;;;;;6220021;28;20303;-73
2023/11/15 15:29:09;;;;;;;2.47;2.33;;;;;;;;;;6186797;28;20295;-71
2023/11/15 15:32:27;;;;;;;2.63;2.53;;;;;;;;;;6175424;28;20234;-73
2023/11/15 15:35:33;;;;;;;2.50;2.40;;;;;;;;;;6180872;28;20313;-73
2023/11/15 15:38:36;;;;;;;2.73;2.57;;;;;;;;;;6194696;28;20592;-70
2023/11/15 15:41:40;;;;;;;2.40;2.20;;;;;;;;;;6206056;28;20309;-72
2023/11/15 15:44:46;;;;;;;2.53;2.33;;;;;;;;;;6187739;28;20299;-72
2023/11/15 15:47:50;;;;;;;2.37;2.27;;;;;;;;;;6186414;28;20628;-74
2023/11/15 15:50:55;;;;;;;2.50;2.43;;;;;;;;;;6188523;28;20292;-73
2023/11/15 15:53:59;;;;;;;2.40;2.30;;;;;;;;;;6185294;28;20324;-72
2023/11/15 15:57:04;;;;;;;2.17;2.10;;;;;;;;;;6184555;28;20313;-72
2023/11/15 16:00:08;;;;;;;2.30;2.23;;;;;;;;;;6183850;28;20300;-72
2023/11/15 16:03:12;;;;;;;2.43;2.27;;;;;;;;;;6184860;28;20317;-71
2023/11/15 16:06:21;;;;;;;2.33;2.20;;;;;;;;;;6200644;28;20319;-72
2023/11/15 16:09:27;;;;;;;2.77;2.57;;;;;;;;;;6200738;28;20312;-73
2023/11/15 16:12:31;;;;;;;2.60;2.50;;;;;;;;;;6209543;28;20307;-71
2023/11/15 16:15:34;;;;;;;2.30;2.20;;;;;;;;;;6208896;28;20288;-72
2023/11/15 16:18:38;;;;;;;3.03;2.73;;;;;;;;;;6198330;28;20319;-73
2023/11/15 16:21:44;;;;;;;3.63;2.63;;;;;;;;;;6208501;28;20311;-72
2023/11/15 16:24:48;;;;;;;2.70;2.50;;;;;;;;;;6191126;28;20295;-72
2023/11/15 16:27:52;;;;;;;2.20;2.20;;;;;;;;;;6208978;28;20295;-73
2023/11/15 16:30:56;;;;;;;3.30;2.77;;;;;;;;;;6209113;28;20298;-74
2023/11/15 16:33:59;;;;;;;2.80;2.70;;;;;;;;;;6214616;28;20306;-71
2023/11/15 16:37:05;;;;;;;3.07;2.60;;;;;;;;;;6216671;28;20509;-72
2023/11/15 16:40:11;;;;;;;2.27;2.27;;;;;;;;;;6202749;28;20292;-74
2023/11/15 16:43:15;;;;;;;3.60;2.37;;;;;;;;;;6208850;28;20307;-73
2023/11/15 16:46:19;;;;;;;2.60;2.53;;;;;;;;;;6187552;28;20313;-73
2023/11/15 16:49:23;;;;;;;3.10;2.90;;;;;;;;;;6200217;28;20316;-72
2023/11/15 16:52:28;;;;;;;3.00;2.73;;;;;;;;;;6208633;28;20295;-73
2023/11/15 16:55:31;;;;;;;2.50;2.50;;;;;;;;;;6207577;28;20317;-73
2023/11/15 16:58:36;;;;;;;2.80;2.70;;;;;;;;;;6206395;28;20507;-72
2023/11/15 17:01:41;;;;;;;3.00;2.90;;;;;;;;;;6208417;28;20311;-72
2023/11/15 17:04:45;;;;;;;3.23;2.93;;;;;;;;;;6197345;28;20396;-72
2023/11/15 17:07:50;;;;;;;2.80;2.70;;;;;;;;;;6208192;28;20295;-77
2023/11/15 17:10:54;;;;;;;3.13;3.03;;;;;;;;;;6208232;28;20609;-71
2023/11/15 17:13:59;;;;;;;3.13;2.83;;;;;;;;;;6231657;28;20242;-71
2023/11/15 17:17:04;;;;;;;2.90;2.70;;;;;;;;;;6188646;28;20367;-71
2023/11/15 17:20:11;;;;;;;3.40;3.20;;;;;;;;;;6231212;28;20299;-71
2023/11/15 17:23:16;;;;;;;3.10;2.87;;;;;;;;;;6226387;28;20510;-71
2023/11/15 17:26:21;;;;;;;6.30;2.90;;;;;;;;;;6206334;28;20303;-71
2023/11/15 17:29:24;;;;;;;3.00;2.90;;;;;;;;;;6189538;28;20297;-72
2023/11/15 17:32:28;;;;;;;3.73;3.43;;;;;;;;;;6181942;28;20414;-72
2023/11/15 17:35:32;;;;;;;2.87;2.70;;;;;;;;;;6183467;28;20305;-71
2023/11/15 17:38:37;;;;;;;2.73;2.53;;;;;;;;;;6183427;28;20300;-71
2023/11/15 17:41:42;;;;;;;3.20;2.80;;;;;;;;;;6183710;28;20296;-72
2023/11/15 17:44:45;;;;;;;3.20;3.00;;;;;;;;;;6182296;28;20304;-72
2023/11/15 17:47:49;;;;;;;3.47;2.70;;;;;;;;;;6181565;28;20314;-72
2023/11/15 17:50:53;;;;;;;3.00;2.87;;;;;;;;;;6175505;28;20312;-71
2023/11/15 17:53:58;;;;;;;3.00;2.80;;;;;;;;;;6195820;28;20579;-75
2023/11/15 17:57:02;;;;;;;3.07;2.93;;;;;;;;;;6206949;28;20501;-73
2023/11/15 18:00:12;;;;;;;3.10;2.80;;;;;;;;;;6204840;28;20352;-72
2023/11/15 18:03:17;;;;;;;4.70;3.07;;;;;;;;;;6205521;28;20307;-72
2023/11/15 18:06:23;;;;;;;5.87;3.30;;;;;;;;;;6205927;28;20291;-73
2023/11/15 18:09:28;;;;;;;3.63;3.40;;;;;;;;;;6207209;28;20300;-73
2023/11/15 18:12:31;;;;;;;4.93;3.50;;;;;;;;;;6208684;28;20264;-71
2023/11/15 18:15:37;;;;;;;3.90;3.60;;;;;;;;;;6207745;28;20311;-72
2023/11/15 18:18:41;;;;;;;3.50;3.30;;;;;;;;;;6207983;28;20295;-72
2023/11/15 18:21:45;;;;;;;3.80;3.57;;;;;;;;;;6206155;28;20243;-72
2023/11/15 18:24:50;;;;;;;4.00;3.43;;;;;;;;;;6196581;28;20299;-70
2023/11/15 18:27:55;;;;;;;3.90;3.60;;;;;;;;;;6205954;28;20296;-76
2023/11/15 18:31:05;;;;;;;3.47;3.10;;;;;;;;;;6206795;28;20326;-71